createdAt,value
2019-05-20T07:10:08.317Z,42.64
2019-05-20T07:12:41.560Z,41.75
2019-05-20T07:15:13.204Z,40.02
2019-05-20T07:17:44.531Z,40.88
2019-05-20T07:20:16.245Z,40.57
2019-05-20T07:22:55.679Z,39.92
2019-05-20T07:25:21.153Z,40.19
2019-05-20T07:27:52.617Z,39.17
2019-05-20T07:30:24.111Z,39.25
2019-05-20T07:32:55.590Z,38.47
2019-05-20T07:35:30.703Z,38.84
2019-05-20T07:38:01.425Z,37.97
2019-05-20T07:40:33.425Z,38.17
2019-05-20T07:43:05.277Z,38.21
2019-05-20T07:45:38.492Z,38.28
2019-05-20T07:48:12.972Z,37.52
2019-05-20T07:50:45.037Z,37.79
2019-05-20T07:53:17.438Z,37.04
2019-05-20T07:56:03.911Z,37.22
2019-05-20T07:58:37.499Z,36.00
2019-05-20T08:01:08.896Z,36.07
2019-05-20T08:03:40.470Z,35.20
2019-05-20T08:06:13.112Z,35.11
2019-05-20T08:08:44.595Z,35.05
2019-05-20T08:11:16.038Z,34.84
2019-05-20T08:13:47.775Z,35.44
2019-05-20T08:16:19.347Z,35.48
2019-05-20T08:18:50.917Z,35.27
2019-05-20T08:21:22.378Z,33.89
2019-05-20T08:23:53.855Z,33.58
2019-05-20T08:26:25.522Z,33.94
2019-05-20T08:28:57.073Z,33.80
2019-05-20T08:31:28.489Z,32.07
2019-05-20T08:33:59.917Z,32.30
2019-05-20T08:36:31.382Z,32.94
2019-05-20T08:39:02.946Z,32.29
2019-05-20T08:41:35.782Z,32.68
2019-05-20T08:44:07.233Z,33.17
2019-05-20T08:46:38.712Z,31.63
2019-05-20T08:49:11.412Z,31.79
2019-05-20T08:51:43.747Z,32.66
2019-05-20T08:54:15.258Z,32.62
2019-05-20T08:56:49.271Z,32.52
2019-05-20T08:59:20.066Z,32.75
2019-05-20T09:01:51.382Z,33.03
2019-05-20T09:04:22.808Z,32.80
2019-05-20T09:06:54.243Z,32.25
2019-05-20T09:09:27.104Z,31.96
2019-05-20T09:11:58.977Z,31.65
2019-05-20T09:14:30.514Z,31.48
2019-05-20T09:17:01.913Z,32.22
2019-05-20T09:19:33.519Z,32.22
2019-05-20T09:22:04.890Z,32.20
2019-05-20T09:24:36.425Z,31.50
2019-05-20T09:27:08.304Z,31.86
2019-05-20T09:29:39.918Z,32.21
2019-05-20T09:32:13.146Z,32.52
2019-05-20T09:34:44.896Z,30.98
2019-05-20T09:37:16.343Z,30.51
2019-05-20T09:39:47.830Z,30.20
2019-05-20T09:42:19.337Z,31.10
2019-05-20T09:44:52.475Z,31.39
2019-05-20T09:47:24.054Z,31.35
2019-05-20T09:49:55.636Z,31.43
2019-05-20T09:52:27.080Z,30.66
2019-05-20T09:54:58.555Z,30.97
2019-05-20T09:57:30.076Z,30.62
2019-05-20T10:00:01.698Z,30.94
2019-05-20T10:02:37.987Z,30.47
2019-05-20T10:05:07.988Z,30.34
2019-05-20T10:07:39.454Z,30.75
2019-05-20T10:10:11.130Z,31.31
2019-05-20T10:12:46.512Z,31.10
2019-05-20T10:15:17.601Z,31.68
2019-05-20T10:17:48.958Z,30.79
2019-05-20T10:20:21.345Z,31.27
2019-05-20T10:22:52.834Z,29.96
2019-05-20T10:25:24.268Z,29.76
2019-05-20T10:27:57.691Z,29.81
2019-05-20T10:30:28.903Z,29.74
2019-05-20T10:33:00.527Z,29.74
2019-05-20T10:35:31.968Z,29.43
2019-05-20T10:38:03.425Z,29.17
2019-05-20T10:40:34.986Z,28.77
2019-05-20T10:44:42.681Z,28.29
2019-05-20T10:47:14.339Z,28.72
2019-05-20T10:49:45.771Z,29.62
2019-05-20T10:52:17.252Z,29.77
2019-05-20T10:54:48.792Z,28.88
2019-05-20T10:57:21.314Z,28.81
2019-05-20T10:59:52.704Z,28.80
2019-05-20T11:02:24.262Z,29.59
2019-05-20T11:04:55.659Z,30.04
2019-05-20T11:07:27.396Z,28.96
2019-05-20T11:09:58.879Z,28.50
2019-05-20T11:12:30.293Z,27.75
2019-05-20T11:15:02.405Z,27.75
2019-05-20T11:17:37.706Z,27.79
2019-05-20T11:20:09.744Z,27.49
2019-05-20T11:22:41.766Z,27.79
2019-05-20T11:25:13.147Z,27.15
2019-05-20T11:27:44.458Z,27.01
2019-05-20T11:30:17.968Z,27.01
2019-05-20T11:32:49.296Z,27.87
2019-05-20T11:35:20.661Z,27.57
2019-05-20T11:37:59.516Z,27.34
2019-05-20T11:40:30.952Z,27.98
2019-05-20T11:43:02.544Z,27.98
2019-05-20T11:45:33.850Z,28.77
2019-05-20T11:48:05.442Z,27.94
2019-05-20T11:50:36.971Z,26.92
2019-05-20T11:53:08.614Z,27.63
2019-05-20T11:55:40.493Z,27.63
2019-05-20T11:58:16.231Z,29.05
2019-05-20T12:00:45.269Z,28.45
2019-05-20T12:03:16.640Z,28.19
2019-05-20T12:05:48.288Z,28.19
2019-05-20T12:08:20.018Z,27.97
2019-05-20T12:10:51.536Z,27.90
2019-05-20T12:13:23.169Z,28.02
2019-05-20T12:15:54.627Z,27.27
2019-05-20T12:18:27.194Z,27.27
2019-05-20T12:20:58.546Z,26.85
2019-05-20T12:23:29.998Z,26.89
2019-05-20T12:26:01.570Z,27.92
2019-05-20T12:28:34.217Z,28.17
2019-05-20T12:31:05.695Z,28.58
2019-05-20T12:33:37.232Z,28.58
2019-05-20T12:36:08.860Z,27.61
2019-05-20T12:38:40.214Z,27.20
2019-05-20T12:41:11.523Z,27.66
2019-05-20T12:43:45.649Z,27.63
2019-05-20T12:46:17.281Z,27.50
2019-05-20T12:48:48.832Z,27.21
2019-05-20T12:51:20.285Z,27.17
2019-05-20T12:53:51.718Z,27.84
2019-05-20T12:56:23.413Z,27.51
2019-05-20T12:58:54.906Z,27.57
2019-05-20T13:01:26.360Z,27.57
2019-05-20T13:03:57.976Z,27.44
2019-05-20T13:06:29.893Z,27.54
2019-05-20T13:09:01.854Z,27.10
2019-05-20T13:11:34.519Z,26.91
2019-05-20T13:14:06.250Z,26.88
2019-05-20T13:16:37.642Z,27.43
2019-05-20T13:19:09.196Z,27.57
2019-05-20T13:21:40.872Z,27.45
2019-05-20T13:24:12.312Z,28.12
2019-05-20T13:26:43.842Z,27.77
2019-05-20T13:29:15.286Z,27.32
2019-05-20T13:31:47.621Z,28.29
2019-05-20T13:34:20.165Z,28.20
2019-05-20T13:36:51.751Z,27.22
2019-05-20T13:39:23.423Z,26.96
2019-05-20T13:41:54.763Z,27.46
2019-05-20T13:44:27.421Z,27.72
2019-05-20T13:47:01.048Z,27.63
2019-05-20T13:49:32.709Z,27.64
2019-05-20T13:52:04.165Z,27.53
2019-05-20T13:54:36.548Z,27.76
2019-05-20T13:57:12.326Z,27.40
2019-05-20T13:59:41.040Z,27.40
2019-05-20T14:02:12.418Z,27.73
2019-05-20T14:04:43.885Z,28.34
2019-05-20T14:07:15.404Z,28.32
2019-05-20T14:09:46.850Z,28.49
2019-05-20T14:12:18.449Z,28.42
2019-05-20T14:14:49.902Z,27.90
2019-05-20T14:17:21.363Z,28.32
2019-05-20T14:19:53.883Z,28.00
2019-05-20T14:22:25.451Z,28.26
2019-05-20T14:24:56.822Z,27.91
2019-05-20T14:27:28.292Z,27.63
2019-05-20T14:30:00.763Z,27.92
2019-05-20T14:32:32.405Z,28.15
2019-05-20T14:35:05.885Z,28.15
2019-05-20T14:37:38.375Z,27.90
2019-05-20T14:40:11.673Z,27.90
2019-05-20T14:42:43.270Z,27.18
2019-05-20T14:45:14.754Z,27.21
2019-05-20T14:47:46.067Z,27.32
2019-05-20T14:50:18.507Z,27.29
2019-05-20T14:52:52.969Z,27.29
2019-05-20T14:55:24.611Z,26.72
2019-05-20T14:57:55.948Z,26.83
2019-05-20T15:00:27.680Z,26.48
2019-05-20T15:02:59.130Z,26.11
2019-05-20T15:05:30.676Z,25.78
2019-05-20T15:08:02.216Z,25.85
2019-05-20T15:10:33.719Z,25.84
2019-05-20T15:13:05.762Z,25.98
2019-05-20T15:15:37.764Z,26.26
2019-05-20T15:18:09.228Z,25.91
2019-05-20T15:20:42.204Z,25.98
2019-05-20T15:23:13.756Z,26.13
2019-05-20T15:25:46.577Z,26.18
2019-05-20T15:28:18.142Z,26.12
2019-05-20T15:30:50.745Z,26.19
2019-05-20T15:33:22.304Z,26.45
2019-05-20T15:35:53.765Z,27.78
2019-05-20T15:38:25.478Z,28.76
2019-05-20T15:40:57.006Z,29.07
2019-05-20T15:43:28.646Z,29.31
2019-05-20T15:46:00.414Z,29.94
2019-05-20T15:48:31.957Z,30.42
2019-05-20T15:51:05.141Z,30.65
2019-05-20T15:53:36.985Z,30.78
2019-05-20T15:56:08.936Z,30.87
2019-05-20T15:58:40.497Z,30.87
2019-05-20T16:01:12.077Z,31.05
2019-05-20T16:03:43.507Z,31.48
2019-05-20T16:06:14.804Z,31.71
2019-05-20T16:08:46.408Z,31.44
2019-05-20T16:11:17.873Z,31.50
2019-05-20T16:13:49.516Z,31.26
2019-05-20T16:16:22.681Z,31.36
2019-05-20T16:18:55.112Z,31.42
2019-05-20T16:21:27.666Z,31.73
2019-05-20T16:24:05.981Z,32.21
2019-05-20T16:26:41.381Z,32.26
2019-05-20T16:29:21.642Z,32.27
2019-05-20T16:31:58.868Z,32.10
2019-05-20T16:34:30.363Z,32.30
2019-05-20T16:37:02.801Z,32.35
2019-05-20T16:39:34.339Z,32.59
2019-05-20T16:42:06.007Z,32.47
2019-05-20T16:44:41.186Z,32.58
2019-05-20T16:47:15.858Z,32.74
2019-05-20T16:49:54.071Z,32.73
2019-05-20T16:52:25.521Z,32.81
2019-05-20T16:54:57.101Z,33.08
2019-05-20T16:57:28.712Z,33.16
2019-05-20T17:00:00.154Z,33.19
2019-05-20T17:02:31.649Z,33.27
2019-05-20T17:05:03.265Z,33.15
2019-05-20T17:07:34.861Z,33.29
2019-05-20T17:10:08.573Z,33.58
2019-05-20T17:12:40.718Z,33.52
2019-05-20T17:15:13.948Z,33.73
2019-05-20T17:17:45.477Z,33.67
2019-05-20T17:20:17.031Z,33.58
2019-05-20T17:22:48.702Z,33.72
2019-05-20T17:25:20.248Z,34.04
2019-05-20T17:27:51.656Z,34.28
2019-05-20T17:30:26.923Z,34.27
2019-05-20T17:32:58.396Z,34.79
2019-05-20T17:35:29.781Z,34.59
2019-05-20T17:38:01.219Z,34.83
2019-05-20T17:40:32.674Z,35.11
2019-05-20T17:43:04.539Z,35.27
2019-05-20T17:45:36.125Z,35.33
2019-05-20T17:48:07.786Z,35.20
2019-05-20T17:50:40.569Z,35.40
2019-05-20T17:53:12.016Z,35.63
2019-05-20T17:55:43.575Z,35.41
2019-05-20T17:58:15.038Z,35.73
2019-05-20T18:00:48.547Z,35.76
2019-05-20T18:03:20.302Z,35.98
2019-05-20T18:05:51.781Z,36.11
2019-05-20T18:08:24.991Z,36.36
2019-05-20T18:10:56.719Z,36.48
2019-05-20T18:13:28.678Z,36.11
2019-05-20T18:16:00.210Z,36.25
2019-05-20T18:18:31.639Z,36.48
2019-05-20T18:21:03.137Z,36.70
2019-05-20T18:23:35.422Z,37.23
2019-05-20T18:26:06.856Z,37.20
2019-05-20T18:28:38.328Z,37.60
2019-05-20T18:31:09.700Z,37.69
2019-05-20T18:33:41.413Z,37.85
2019-05-20T18:36:12.872Z,37.83
2019-05-20T18:38:44.281Z,37.97
2019-05-20T18:41:15.786Z,38.13
2019-05-20T18:43:47.183Z,38.24
2019-05-20T18:46:18.734Z,38.36
2019-05-20T18:48:50.145Z,38.32
2019-05-20T18:51:21.618Z,38.28
2019-05-20T18:53:54.558Z,38.30
2019-05-20T18:56:25.910Z,38.24
2019-05-20T18:58:57.362Z,38.00
2019-05-20T19:01:29.031Z,37.79
2019-05-20T19:04:00.497Z,37.46
2019-05-20T19:06:31.970Z,37.21
2019-05-20T19:09:04.313Z,37.27
2019-05-20T19:11:35.772Z,37.24
2019-05-20T19:14:08.455Z,37.50
2019-05-20T19:16:40.311Z,37.50
2019-05-20T19:19:15.009Z,37.33
2019-05-20T19:21:49.452Z,37.40
2019-05-20T19:24:21.078Z,37.42
2019-05-20T19:26:52.822Z,37.28
2019-05-20T19:29:24.257Z,37.31
2019-05-20T19:32:01.674Z,37.22
2019-05-20T19:34:29.343Z,37.09
2019-05-20T19:37:00.790Z,37.47
2019-05-20T19:39:32.663Z,37.57
2019-05-20T19:42:05.315Z,37.60
2019-05-20T19:44:36.823Z,37.93
2019-05-20T19:47:10.126Z,37.81
2019-05-20T19:49:42.598Z,38.03
2019-05-20T19:52:14.404Z,38.11
2019-05-20T19:54:45.934Z,37.59
2019-05-20T19:57:17.701Z,37.36
2019-05-20T19:59:49.104Z,37.45
2019-05-20T20:02:20.871Z,37.48
2019-05-20T20:04:52.689Z,37.71
2019-05-20T20:07:24.154Z,37.79
2019-05-20T20:09:55.527Z,37.93
2019-05-20T20:12:26.983Z,38.13
2019-05-20T20:14:58.478Z,38.33
2019-05-20T20:17:29.983Z,38.37
2019-05-20T20:20:01.483Z,38.49
2019-05-20T20:22:33.159Z,38.33
2019-05-20T20:25:06.013Z,38.54
2019-05-20T20:27:38.128Z,38.52
2019-05-20T20:30:09.878Z,38.70
2019-05-20T20:32:42.351Z,38.58
2019-05-20T20:35:14.095Z,38.85
2019-05-20T20:37:46.575Z,38.75
2019-05-20T20:40:19.717Z,39.00
2019-05-20T20:42:51.275Z,38.95
2019-05-20T20:45:22.882Z,39.68
2019-05-20T20:47:54.404Z,39.30
2019-05-20T20:50:25.911Z,39.17
2019-05-20T20:52:59.312Z,39.08
2019-05-20T20:55:30.780Z,38.97
2019-05-20T20:58:02.180Z,38.92
2019-05-20T21:00:34.080Z,38.94
2019-05-20T21:03:05.469Z,39.15
2019-05-20T21:05:36.899Z,39.19
2019-05-20T21:08:08.328Z,39.34
2019-05-20T21:10:39.987Z,39.52
2019-05-20T21:13:11.369Z,39.67
2019-05-20T21:15:42.779Z,39.75
2019-05-20T21:18:14.178Z,39.65
2019-05-20T21:20:45.577Z,39.84
2019-05-20T21:23:18.601Z,40.14
2019-05-20T21:25:50.126Z,40.12
2019-05-20T21:28:21.694Z,40.20
2019-05-20T21:30:53.435Z,40.74
2019-05-20T21:33:25.065Z,40.64
2019-05-20T21:35:56.576Z,40.70
2019-05-20T21:38:27.902Z,40.69
2019-05-20T21:40:59.481Z,40.59
2019-05-20T21:43:31.047Z,40.71
2019-05-20T21:46:03.226Z,41.11
2019-05-20T21:48:34.664Z,41.25
2019-05-20T21:51:06.076Z,41.27
2019-05-20T21:53:37.486Z,41.29
2019-05-20T21:56:09.082Z,41.63
2019-05-20T21:58:40.514Z,41.48
2019-05-20T22:01:12.116Z,41.40
2019-05-20T22:03:43.622Z,41.85
2019-05-20T22:06:16.986Z,41.74
2019-05-20T22:08:48.724Z,41.81
2019-05-20T22:11:20.217Z,41.80
2019-05-20T22:13:53.311Z,41.65
2019-05-20T22:16:29.458Z,41.85
2019-05-20T22:18:58.603Z,41.97
2019-05-20T22:21:34.624Z,42.44
2019-05-20T22:24:08.150Z,42.15
2019-05-20T22:26:39.770Z,41.96
2019-05-20T22:29:11.319Z,42.06
2019-05-20T22:31:42.854Z,42.07
2019-05-20T22:34:14.212Z,42.00
2019-05-20T22:36:45.709Z,42.26
2019-05-20T22:39:17.154Z,42.09
2019-05-20T22:41:48.573Z,42.12
2019-05-20T22:44:19.949Z,42.30
2019-05-20T22:46:51.584Z,42.41
2019-05-20T22:49:23.006Z,42.47
2019-05-20T22:51:54.489Z,42.40
2019-05-20T22:54:25.797Z,42.48
2019-05-20T22:56:57.459Z,42.60
2019-05-20T22:59:28.787Z,42.69
2019-05-20T23:02:00.130Z,42.81
2019-05-20T23:04:31.608Z,42.99
2019-05-20T23:07:03.095Z,43.13
2019-05-20T23:09:34.534Z,43.24
2019-05-20T23:12:05.892Z,43.34
2019-05-20T23:14:37.347Z,43.29
2019-05-20T23:17:08.822Z,43.34
2019-05-20T23:19:40.146Z,43.60
2019-05-20T23:22:11.854Z,43.64
2019-05-20T23:24:43.316Z,43.63
2019-05-20T23:27:15.004Z,43.60
2019-05-20T23:29:47.115Z,43.58
2019-05-20T23:32:18.492Z,43.83
2019-05-20T23:34:50.094Z,43.87
2019-05-20T23:37:21.897Z,43.81
2019-05-20T23:39:53.508Z,43.82
2019-05-20T23:42:25.171Z,43.91
2019-05-20T23:44:56.587Z,43.90
2019-05-20T23:47:28.165Z,43.91
2019-05-20T23:49:59.624Z,44.19
2019-05-20T23:52:32.202Z,44.26
2019-05-20T23:55:09.800Z,44.32
2019-05-20T23:57:41.351Z,44.36
